Time;durP1;ratioP1;P1;durP2;ratioP2;P2;SDS_P1;SDS_P2;PMS_P1;PMS_P2;Temp;Humidity;BMP_temperature;BMP_pressure;BME280_temperature;BME280_humidity;BME280_pressure;Samples;Min_cycle;Max_cycle;Signal;HPM_P1;HPM_P2
2024/04/18 00:02:10;;;;;;;5.57;2.30;;;;;;;8.09;100.00;100661.25;5460655;26;20422;-71
2024/04/18 00:04:35;;;;;;;4.50;2.13;;;;;;;8.11;100.00;100653.50;5435312;26;20001;-71
2024/04/18 00:07:01;;;;;;;6.15;2.15;;;;;;;8.10;100.00;100657.38;5463181;26;20002;-71
2024/04/18 00:09:26;;;;;;;7.07;2.15;;;;;;;8.07;100.00;100661.50;5464631;26;20002;-71
2024/04/18 00:11:52;;;;;;;5.88;1.90;;;;;;;8.09;100.00;100663.19;5494334;26;20002;-70
2024/04/18 00:14:17;;;;;;;4.68;2.00;;;;;;;8.11;100.00;100664.56;5434425;26;20046;-71
2024/04/18 00:16:43;;;;;;;6.90;2.30;;;;;;;7.94;100.00;100659.28;5434370;26;19997;-70
2024/04/18 00:19:08;;;;;;;10.38;2.95;;;;;;;7.98;100.00;100662.31;5434601;26;20002;-71
2024/04/18 00:21:34;;;;;;;6.50;2.53;;;;;;;7.95;100.00;100665.66;5427065;26;20024;-70
2024/04/18 00:23:59;;;;;;;5.90;2.30;;;;;;;7.92;100.00;100658.72;5458177;26;20006;-70
2024/04/18 00:26:25;;;;;;;6.85;2.20;;;;;;;7.94;100.00;100655.66;5489737;26;20002;-70
2024/04/18 00:28:50;;;;;;;8.43;1.90;;;;;;;7.94;100.00;100651.00;5488456;26;20012;-70
2024/04/18 00:31:16;;;;;;;5.35;1.52;;;;;;;7.98;100.00;100654.03;5459237;26;20413;-70
2024/04/18 00:33:41;;;;;;;6.82;1.80;;;;;;;7.98;100.00;100643.78;5402267;26;20014;-71
2024/04/18 00:36:09;;;;;;;6.88;1.88;;;;;;;7.94;100.00;100655.66;5491971;26;19998;-70
2024/04/18 00:38:35;;;;;;;4.32;1.60;;;;;;;7.93;100.00;100654.00;5462627;26;20006;-71
2024/04/18 00:41:01;;;;;;;7.35;2.08;;;;;;;7.94;100.00;100647.38;5461229;26;20003;-71
2024/04/18 00:43:26;;;;;;;9.80;2.75;;;;;;;7.93;100.00;100651.25;5492136;26;20086;-71
2024/04/18 00:45:55;;;;;;;4.68;1.63;;;;;;;7.92;100.00;100644.91;5461491;26;20073;-71
2024/04/18 00:48:25;;;;;;;8.70;2.45;;;;;;;7.89;100.00;100644.63;5485223;26;20011;-71
2024/04/18 00:50:52;;;;;;;6.13;1.92;;;;;;;7.93;100.00;100638.25;5458310;26;20009;-70
2024/04/18 00:53:17;;;;;;;4.65;1.58;;;;;;;7.94;100.00;100636.31;5432042;26;20032;-70
2024/04/18 00:55:42;;;;;;;3.75;1.50;;;;;;;7.95;100.00;100635.22;5491186;26;20738;-70
2024/04/18 00:58:10;;;;;;;4.18;1.58;;;;;;;7.95;100.00;100635.22;5461222;26;20012;-70
2024/04/18 01:00:35;;;;;;;5.78;1.48;;;;;;;7.90;100.00;100637.97;5425505;26;19999;-70
2024/04/18 01:03:01;;;;;;;4.75;1.65;;;;;;;7.91;100.00;100637.72;5424768;26;20017;-70
2024/04/18 01:05:26;;;;;;;7.65;2.10;;;;;;;7.93;100.00;100637.41;5493190;26;20421;-70
2024/04/18 01:07:51;;;;;;;5.20;1.83;;;;;;;7.92;100.00;100633.00;5431214;26;20522;-70
2024/04/18 01:10:17;;;;;;;11.38;2.40;;;;;;;7.89;100.00;100633.56;5401198;26;20006;-70
2024/04/18 01:12:42;;;;;;;5.32;1.65;;;;;;;7.86;100.00;100637.69;5430551;26;20350;-70
2024/04/18 01:15:08;;;;;;;5.25;1.75;;;;;;;7.83;100.00;100647.38;5460988;26;20078;-70
2024/04/18 01:17:33;;;;;;;5.03;1.90;;;;;;;7.79;100.00;100639.88;5461588;26;20541;-70
2024/04/18 01:19:59;;;;;;;4.32;1.80;;;;;;;7.81;100.00;100645.97;5460921;26;20034;-73
2024/04/18 01:22:24;;;;;;;6.88;1.95;;;;;;;7.79;100.00;100646.22;5445092;26;20043;-70
2024/04/18 01:24:50;;;;;;;5.75;2.08;;;;;;;7.84;100.00;100645.44;5430694;26;20051;-70
2024/04/18 01:27:15;;;;;;;7.15;2.20;;;;;;;7.83;100.00;100649.31;5493975;26;20012;-70
2024/04/18 01:29:41;;;;;;;6.97;1.80;;;;;;;7.86;100.00;100651.53;5431303;26;20012;-70
2024/04/18 01:32:07;;;;;;;6.10;2.10;;;;;;;7.88;100.00;100638.22;5434103;26;20549;-70
2024/04/18 01:34:32;;;;;;;8.82;1.88;;;;;;;7.89;100.00;100639.91;5463582;26;20016;-70
2024/04/18 01:36:58;;;;;;;6.95;2.22;;;;;;;7.89;100.00;100645.44;5435606;26;20073;-71
2024/04/18 01:39:23;;;;;;;7.38;2.47;;;;;;;7.90;100.00;100651.81;5463934;26;20366;-70
2024/04/18 01:41:49;;;;;;;4.88;1.90;;;;;;;7.89;100.00;100639.09;5495013;26;19997;-70
2024/04/18 01:44:15;;;;;;;4.20;1.80;;;;;;;7.90;100.00;100644.31;5462336;26;20047;-70
2024/04/18 01:46:41;;;;;;;4.03;1.88;;;;;;;7.89;100.00;100650.97;5435894;26;20064;-70
2024/04/18 01:49:06;;;;;;;6.18;2.65;;;;;;;7.89;100.00;100658.44;5462731;26;20449;-71
2024/04/18 01:51:32;;;;;;;5.78;2.13;;;;;;;7.90;100.00;100652.63;5495179;26;20019;-71
2024/04/18 01:53:57;;;;;;;4.72;1.83;;;;;;;7.88;100.00;100654.81;5463924;26;20005;-70
2024/04/18 01:56:23;;;;;;;5.45;1.70;;;;;;;7.92;100.00;100644.91;5401316;26;20058;-71
2024/04/18 01:58:48;;;;;;;5.40;2.03;;;;;;;7.88;100.00;100645.69;5433218;26;20002;-70
2024/04/18 02:01:14;;;;;;;5.97;1.70;;;;;;;7.89;100.00;100650.97;5438373;26;20422;-71
2024/04/18 02:03:39;;;;;;;6.40;1.80;;;;;;;7.89;100.00;100650.16;5428353;26;20001;-70
2024/04/18 02:06:05;;;;;;;4.10;1.50;;;;;;;7.88;100.00;100654.81;5435577;26;20070;-70
2024/04/18 02:08:31;;;;;;;6.00;2.20;;;;;;;7.86;100.00;100647.94;5464557;26;20008;-70
2024/04/18 02:10:56;;;;;;;5.72;1.90;;;;;;;7.85;100.00;100655.38;5435220;26;20402;-70
2024/04/18 02:13:22;;;;;;;6.95;2.08;;;;;;;7.82;100.00;100651.22;5494658;26;19997;-70
2024/04/18 02:15:48;;;;;;;4.30;1.63;;;;;;;7.76;100.00;100655.06;5465264;26;20001;-71
2024/04/18 02:18:13;;;;;;;4.70;1.73;;;;;;;7.79;100.00;100671.13;5464348;26;20001;-70
2024/04/18 02:20:39;;;;;;;5.55;1.83;;;;;;;7.75;100.00;100660.91;5435702;26;20001;-70
2024/04/18 02:23:05;;;;;;;6.35;1.80;;;;;;;7.72;100.00;100672.50;5413257;26;20012;-71
2024/04/18 02:25:30;;;;;;;5.28;1.77;;;;;;;7.68;100.00;100680.47;5435711;26;20437;-71
2024/04/18 02:27:55;;;;;;;5.10;1.65;;;;;;;7.63;100.00;100674.94;5459328;26;20029;-71
2024/04/18 02:30:21;;;;;;;4.93;1.92;;;;;;;7.58;100.00;100673.00;5526878;26;20033;-70
2024/04/18 02:32:46;;;;;;;4.07;1.70;;;;;;;7.51;100.00;100671.56;5525685;26;20009;-70
2024/04/18 02:35:12;;;;;;;3.42;1.60;;;;;;;7.46;100.00;100671.53;5464791;26;20009;-70
2024/04/18 02:37:38;;;;;;;4.47;1.70;;;;;;;7.45;100.00;100670.72;5463947;26;20001;-71
2024/04/18 02:40:04;;;;;;;4.53;1.48;;;;;;;7.34;100.00;100669.84;5465699;26;20005;-71
2024/04/18 02:42:30;;;;;;;4.47;1.95;;;;;;;7.29;100.00;100677.25;5463763;26;19997;-70
2024/04/18 02:44:59;;;;;;;5.05;2.15;;;;;;;7.26;100.00;100666.75;5463710;26;20008;-70
2024/04/18 02:47:24;;;;;;;5.18;1.90;;;;;;;7.16;100.00;100675.84;5426163;26;20454;-70
2024/04/18 02:49:50;;;;;;;4.07;1.75;;;;;;;7.10;100.00;100671.34;5416652;26;20026;-70
2024/04/18 02:52:15;;;;;;;7.40;1.92;;;;;;;7.08;100.00;100671.63;5433496;26;19998;-70
2024/04/18 02:54:41;;;;;;;6.03;1.70;;;;;;;7.02;100.00;100681.00;5433570;26;20002;-70
2024/04/18 02:57:06;;;;;;;6.85;2.22;;;;;;;6.97;100.00;100678.19;5459893;26;19997;-70
2024/04/18 02:59:32;;;;;;;6.78;1.70;;;;;;;6.96;100.00;100686.72;5465231;26;19997;-70
2024/04/18 03:01:57;;;;;;;3.83;1.80;;;;;;;6.84;100.00;100685.00;5455320;26;19999;-70
2024/04/18 03:04:23;;;;;;;6.93;1.95;;;;;;;6.84;100.00;100678.66;5464950;26;20424;-70
2024/04/18 03:06:48;;;;;;;4.40;1.70;;;;;;;6.81;100.00;100687.47;5463638;26;20008;-70
2024/04/18 03:09:14;;;;;;;8.60;1.80;;;;;;;6.76;100.00;100682.72;5405665;26;20008;-70
2024/04/18 03:11:40;;;;;;;5.93;1.85;;;;;;;6.70;100.00;100690.13;5463520;26;20010;-70
2024/04/18 03:14:05;;;;;;;6.03;1.70;;;;;;;6.66;100.00;100682.66;5418979;26;20014;-70
2024/04/18 03:16:31;;;;;;;4.38;1.80;;;;;;;6.60;100.00;100691.97;5427210;26;19997;-70
2024/04/18 03:18:59;;;;;;;4.38;1.63;;;;;;;6.55;100.00;100692.78;5464972;26;20403;-71
2024/04/18 03:21:24;;;;;;;8.52;1.67;;;;;;;6.55;100.00;100695.53;5490501;26;20029;-71
2024/04/18 03:23:50;;;;;;;5.78;2.05;;;;;;;6.48;100.00;100704.00;5416743;26;20059;-71
2024/04/18 03:26:15;;;;;;;7.28;2.13;;;;;;;6.44;100.00;100702.88;5493356;26;20030;-71
2024/04/18 03:28:41;;;;;;;6.60;1.75;;;;;;;6.43;100.00;100703.13;5400930;26;20012;-70
2024/04/18 03:31:07;;;;;;;6.18;1.83;;;;;;;6.40;100.00;100704.50;5428387;26;20307;-71
2024/04/18 03:33:33;;;;;;;6.70;1.75;;;;;;;6.37;100.00;100701.44;5398751;26;20002;-71
2024/04/18 03:36:02;;;;;;;5.22;2.00;;;;;;;6.34;100.00;100711.06;5456749;26;20008;-71
2024/04/18 03:38:28;;;;;;;5.43;1.63;;;;;;;6.32;100.00;100713.25;5435019;26;20012;-71
2024/04/18 03:40:57;;;;;;;9.63;2.15;;;;;;;6.30;100.00;100715.44;5470381;26;20001;-71
2024/04/18 03:43:22;;;;;;;8.23;2.20;;;;;;;6.26;100.00;100717.88;5464953;26;19997;-71
2024/04/18 03:45:58;;;;;;;7.55;2.08;;;;;;;6.25;100.00;100720.91;5493671;26;20455;-71
2024/04/18 03:48:24;;;;;;;5.57;1.60;;;;;;;6.17;100.00;100715.84;5423933;26;20014;-71
2024/04/18 03:50:49;;;;;;;5.45;1.90;;;;;;;6.08;100.00;100721.00;5428590;26;20006;-71
2024/04/18 03:53:15;;;;;;;8.43;2.13;;;;;;;6.04;100.00;100722.59;5434154;26;20456;-70
2024/04/18 03:55:41;;;;;;;6.97;2.25;;;;;;;6.07;100.00;100737.78;5459957;26;20012;-71
2024/04/18 03:58:07;;;;;;;5.78;2.45;;;;;;;6.01;100.00;100731.38;5434069;26;20494;-71
2024/04/18 04:00:32;;;;;;;4.38;1.40;;;;;;;5.97;100.00;100730.25;5418727;26;20006;-71
2024/04/18 04:02:58;;;;;;;5.13;1.63;;;;;;;6.01;100.00;100723.13;5419078;26;20564;-71
2024/04/18 04:05:23;;;;;;;7.35;1.95;;;;;;;5.93;100.00;100729.91;5432773;26;20001;-71
2024/04/18 04:07:49;;;;;;;5.18;1.80;;;;;;;5.90;100.00;100732.34;5467227;26;20005;-70
2024/04/18 04:10:14;;;;;;;6.43;1.92;;;;;;;5.87;100.00;100736.44;5436240;26;19997;-71
2024/04/18 04:12:40;;;;;;;8.40;2.13;;;;;;;5.81;100.00;100734.72;5436168;26;19997;-71
2024/04/18 04:15:06;;;;;;;8.32;1.88;;;;;;;5.84;100.00;100739.72;5466181;26;20001;-71
2024/04/18 04:17:31;;;;;;;5.90;1.90;;;;;;;5.79;100.00;100743.25;5528935;26;20001;-71
2024/04/18 04:19:57;;;;;;;7.80;2.00;;;;;;;5.74;100.00;100742.31;5508878;26;20026;-71
2024/04/18 04:22:22;;;;;;;8.43;2.25;;;;;;;5.70;100.00;100741.19;5449930;26;20034;-71
2024/04/18 04:24:49;;;;;;;6.95;2.00;;;;;;;5.68;100.00;100748.88;5432605;26;20001;-71
2024/04/18 04:27:14;;;;;;;7.22;1.90;;;;;;;5.69;100.00;100745.88;5437348;26;19998;-71
2024/04/18 04:29:40;;;;;;;5.68;1.67;;;;;;;5.63;100.00;100757.06;5461708;26;20020;-71
2024/04/18 04:32:18;;;;;;;4.32;1.80;;;;;;;5.66;100.00;100753.81;5466973;26;20009;-71
2024/04/18 04:34:44;;;;;;;7.93;1.85;;;;;;;5.59;100.00;100763.09;5466086;26;20012;-70
2024/04/18 04:37:09;;;;;;;6.70;1.90;;;;;;;5.64;100.00;100767.84;5436051;26;20002;-71
2024/04/18 04:39:35;;;;;;;6.25;2.08;;;;;;;5.61;100.00;100765.59;5496546;26;20013;-71
2024/04/18 04:42:00;;;;;;;8.63;2.13;;;;;;;5.57;100.00;100770.78;5407017;26;20444;-71
2024/04/18 04:44:26;;;;;;;7.78;1.90;;;;;;;5.55;100.00;100772.13;5436443;26;20001;-71
2024/04/18 04:46:51;;;;;;;6.68;1.83;;;;;;;5.57;100.00;100770.78;5465761;26;20026;-71
2024/04/18 04:49:20;;;;;;;6.72;1.67;;;;;;;5.51;100.00;100771.78;5379834;26;20017;-71
2024/04/18 04:51:46;;;;;;;6.50;1.60;;;;;;;5.49;100.00;100782.25;5528660;26;20001;-71
2024/04/18 04:54:11;;;;;;;8.30;1.90;;;;;;;5.47;100.00;100786.34;5435449;26;20426;-71
2024/04/18 04:56:37;;;;;;;6.70;2.28;;;;;;;5.43;100.00;100779.66;5432971;26;20005;-71
2024/04/18 04:59:02;;;;;;;7.65;1.70;;;;;;;5.42;100.00;100787.09;5434638;26;20005;-71
2024/04/18 05:01:28;;;;;;;4.13;1.77;;;;;;;5.43;100.00;100796.19;5460030;26;20006;-71
2024/04/18 05:03:53;;;;;;;6.60;1.85;;;;;;;5.43;100.00;100802.53;5434007;26;20005;-71
2024/04/18 05:06:19;;;;;;;6.03;1.80;;;;;;;5.41;100.00;100812.97;5444964;26;20014;-71
2024/04/18 05:08:45;;;;;;;5.00;1.73;;;;;;;5.35;100.00;100809.31;5464256;26;20015;-71
2024/04/18 05:11:10;;;;;;;3.58;1.80;;;;;;;5.34;100.00;100812.31;5435337;26;20001;-71
2024/04/18 05:13:36;;;;;;;4.13;1.58;;;;;;;5.34;100.00;100817.81;5435264;26;20345;-71
2024/04/18 05:16:01;;;;;;;7.78;2.05;;;;;;;5.35;100.00;100816.75;5496138;26;20329;-71
2024/04/18 05:18:27;;;;;;;5.72;1.80;;;;;;;5.34;100.00;100823.31;5433150;26;20013;-71
2024/04/18 05:20:52;;;;;;;7.18;1.60;;;;;;;5.32;100.00;100828.25;5451350;26;20518;-71
2024/04/18 05:23:18;;;;;;;8.73;1.98;;;;;;;5.30;100.00;100836.78;5461168;26;20030;-71
2024/04/18 05:25:44;;;;;;;5.70;1.88;;;;;;;5.28;100.00;100832.59;5430737;26;20475;-71
2024/04/18 05:28:11;;;;;;;7.65;1.83;;;;;;;5.27;100.00;100847.47;5491247;26;20356;-71
2024/04/18 05:33:25;;;;;;;6.90;1.77;;;;;;;5.31;100.00;100838.44;5515621;26;20043;-71
2024/04/18 05:35:51;;;;;;;9.18;1.92;;;;;;;5.30;100.00;100841.44;5485174;26;20010;-71
2024/04/18 05:38:16;;;;;;;6.15;2.03;;;;;;;5.32;100.00;100848.38;5436227;26;20015;-71
2024/04/18 05:40:42;;;;;;;9.68;2.45;;;;;;;5.36;100.00;100848.72;5453196;26;20018;-70
2024/04/18 05:43:07;;;;;;;6.25;2.13;;;;;;;5.41;100.00;100859.81;5430903;26;20006;-71
2024/04/18 05:45:33;;;;;;;10.23;2.03;;;;;;;5.46;100.00;100861.78;5460139;26;20086;-71
2024/04/18 05:47:58;;;;;;;8.35;2.25;;;;;;;5.54;100.00;100864.13;5482268;26;20039;-71
2024/04/18 05:50:25;;;;;;;6.55;1.70;;;;;;;5.60;100.00;100875.00;5509828;26;20539;-71
2024/04/18 05:52:50;;;;;;;7.82;2.10;;;;;;;5.67;100.00;100873.97;5461004;26;20013;-71
2024/04/18 05:55:16;;;;;;;5.90;1.90;;;;;;;5.74;100.00;100880.13;5430367;26;20002;-71
2024/04/18 05:57:41;;;;;;;7.22;2.03;;;;;;;5.83;100.00;100884.97;5460661;26;20006;-71
2024/04/18 06:00:07;;;;;;;8.73;2.08;;;;;;;5.91;100.00;100896.66;5460499;26;20006;-71
2024/04/18 06:02:33;;;;;;;8.60;2.28;;;;;;;5.98;100.00;100900.91;5421844;26;20005;-71
2024/04/18 06:04:58;;;;;;;9.30;2.50;;;;;;;6.06;100.00;100904.34;5430357;26;20337;-70
2024/04/18 06:07:24;;;;;;;13.23;4.80;;;;;;;6.13;100.00;100914.09;5430579;26;20018;-70
2024/04/18 06:09:49;;;;;;;16.95;7.28;;;;;;;6.23;100.00;100911.47;5460308;26;20003;-70
2024/04/18 06:12:17;;;;;;;14.18;6.95;;;;;;;6.32;100.00;100927.56;5430166;26;20020;-70
2024/04/18 06:14:42;;;;;;;7.72;4.28;;;;;;;6.40;100.00;100927.97;5431341;26;20002;-70
2024/04/18 06:17:08;;;;;;;9.07;3.28;;;;;;;6.46;100.00;100926.97;5400882;26;20034;-70
2024/04/18 06:19:33;;;;;;;12.05;3.45;;;;;;;6.53;100.00;100931.44;5430063;26;20003;-70
2024/04/18 06:21:59;;;;;;;9.35;3.10;;;;;;;6.60;100.00;100930.16;5440412;26;20013;-70
2024/04/18 06:24:26;;;;;;;10.55;3.00;;;;;;;6.66;100.00;100937.41;5459858;26;20013;-70
2024/04/18 06:26:52;;;;;;;8.35;2.47;;;;;;;6.78;100.00;100941.97;5460347;26;19998;-70
2024/04/18 06:29:17;;;;;;;10.30;2.40;;;;;;;6.88;100.00;100945.66;5490115;26;20008;-70
2024/04/18 06:31:43;;;;;;;10.30;2.55;;;;;;;6.99;100.00;100943.84;5422489;26;20010;-70
2024/04/18 06:34:08;;;;;;;12.82;2.78;;;;;;;7.10;100.00;100942.00;5451522;26;20013;-70
2024/04/18 06:36:33;;;;;;;6.38;2.50;;;;;;;7.22;100.00;100945.47;5490519;26;19999;-70
2024/04/18 06:38:59;;;;;;;8.27;2.70;;;;;;;7.31;100.00;100952.19;5429772;26;20352;-70
2024/04/18 06:41:24;;;;;;;10.60;3.35;;;;;;;7.44;100.00;100953.69;5460169;26;20084;-70
2024/04/18 06:43:50;;;;;;;6.53;2.55;;;;;;;7.56;100.00;100962.63;5459508;26;20082;-70
2024/04/18 06:46:15;;;;;;;10.40;2.50;;;;;;;7.67;100.00;100966.34;5430081;26;20009;-70
2024/04/18 06:48:41;;;;;;;5.72;2.17;;;;;;;7.79;100.00;100968.91;5454239;26;20102;-70
2024/04/18 06:51:06;;;;;;;9.68;2.42;;;;;;;7.88;100.00;100972.84;5489337;26;20080;-70
2024/04/18 06:53:32;;;;;;;7.38;2.38;;;;;;;7.96;100.00;100968.75;5400305;26;20002;-70
2024/04/18 06:55:59;;;;;;;4.60;2.30;;;;;;;8.15;100.00;100971.94;5488885;26;20006;-70
2024/04/18 06:58:25;;;;;;;10.27;2.75;;;;;;;8.33;100.00;100978.94;5429491;26;20015;-70
2024/04/18 07:00:50;;;;;;;8.30;2.85;;;;;;;8.40;100.00;100983.19;5429468;26;20002;-70
2024/04/18 07:03:15;;;;;;;9.80;2.67;;;;;;;8.55;100.00;100973.28;5429853;26;20020;-70
2024/04/18 07:05:41;;;;;;;6.63;2.55;;;;;;;8.69;100.00;100977.22;5429895;26;20026;-70
2024/04/18 07:08:07;;;;;;;6.82;2.20;;;;;;;8.82;100.00;100976.75;5424585;26;20035;-70
2024/04/18 07:10:33;;;;;;;8.15;2.55;;;;;;;8.98;100.00;100977.66;5459227;26;20002;-70
2024/04/18 07:12:58;;;;;;;9.40;2.40;;;;;;;9.11;100.00;100987.34;5399943;26;20009;-70
2024/04/18 07:15:24;;;;;;;6.13;2.20;;;;;;;9.25;100.00;100987.69;5429613;26;20016;-70
2024/04/18 07:17:53;;;;;;;6.85;2.55;;;;;;;9.36;100.00;100989.38;5429499;26;20002;-70
2024/04/18 07:20:18;;;;;;;6.97;2.33;;;;;;;9.50;100.00;100995.22;5465073;25;19998;-70
2024/04/18 07:22:44;;;;;;;8.00;2.10;;;;;;;9.62;100.00;101002.16;5465429;26;20012;-70
2024/04/18 07:25:09;;;;;;;6.57;2.10;;;;;;;9.72;100.00;101003.28;5465599;26;20016;-70
2024/04/18 07:27:35;;;;;;;9.32;2.15;;;;;;;9.80;100.00;101009.09;5449031;26;20538;-70
2024/04/18 07:30:00;;;;;;;6.57;1.80;;;;;;;9.92;100.00;100997.75;5445383;26;20005;-70
2024/04/18 07:32:26;;;;;;;5.80;1.98;;;;;;;10.08;100.00;101004.09;5431366;26;20565;-70
2024/04/18 07:34:51;;;;;;;7.25;2.05;;;;;;;10.23;100.00;101008.84;5465246;26;20345;-70
2024/04/18 07:37:17;;;;;;;8.88;2.08;;;;;;;10.27;100.00;101019.09;5465194;26;20002;-70
2024/04/18 07:39:42;;;;;;;10.30;2.05;;;;;;;10.48;100.00;101010.75;5435317;26;20072;-71
2024/04/18 07:42:11;;;;;;;8.82;2.50;;;;;;;10.51;100.00;101021.31;5463413;26;19994;-70
2024/04/18 07:44:37;;;;;;;7.68;1.90;;;;;;;10.62;100.00;101033.22;5429583;26;20010;-70
2024/04/18 07:47:03;;;;;;;4.65;1.85;;;;;;;10.62;100.00;101034.06;5425933;26;20005;-70
2024/04/18 07:49:28;;;;;;;5.30;1.80;;;;;;;10.73;100.00;101035.69;5434749;26;20073;-70
2024/04/18 07:51:54;;;;;;;4.53;1.92;;;;;;;10.88;100.00;101028.41;5465463;26;20067;-70
2024/04/18 07:54:20;;;;;;;7.50;1.63;;;;;;;11.07;100.00;101039.75;5458681;26;20446;-70
2024/04/18 07:56:45;;;;;;;5.50;1.77;;;;;;;11.08;100.00;101039.44;5459298;26;20457;-70
2024/04/18 07:59:13;;;;;;;5.28;1.75;;;;;;;11.22;100.00;101042.44;5464895;26;20006;-70
2024/04/18 08:01:40;;;;;;;4.18;1.30;;;;;;;11.22;100.00;101044.38;5445534;26;19997;-70
2024/04/18 08:04:06;;;;;;;7.20;1.90;;;;;;;11.29;100.00;101042.97;5494672;26;19998;-70
2024/04/18 08:06:32;;;;;;;6.70;2.15;;;;;;;11.27;100.00;101044.38;5434618;26;20095;-70
2024/04/18 08:08:59;;;;;;;5.10;1.50;;;;;;;11.38;100.00;101043.19;5494229;26;20001;-71
2024/04/18 08:11:25;;;;;;;6.05;1.63;;;;;;;11.38;100.00;101048.75;5404548;26;20349;-70
2024/04/18 08:13:50;;;;;;;9.25;1.58;;;;;;;11.59;100.00;101044.75;5494968;26;20041;-71
2024/04/18 08:16:16;;;;;;;4.75;1.88;;;;;;;11.72;100.00;101046.03;5434441;26;20013;-70
2024/04/18 08:18:41;;;;;;;7.13;1.90;;;;;;;11.81;100.00;101054.59;5464958;26;19997;-71
2024/04/18 08:21:07;;;;;;;5.38;1.80;;;;;;;11.81;100.00;101055.44;5442366;26;20435;-70
2024/04/18 08:23:32;;;;;;;4.68;1.55;;;;;;;12.01;100.00;101064.81;5428038;26;20008;-70
2024/04/18 08:25:58;;;;;;;6.10;2.03;;;;;;;11.97;100.00;101066.50;5427856;26;20640;-70
2024/04/18 08:28:24;;;;;;;5.32;1.60;;;;;;;12.06;100.00;101062.81;5460975;26;20006;-70
2024/04/18 08:30:50;;;;;;;6.63;1.67;;;;;;;12.15;100.00;101065.81;5428394;26;19998;-70
2024/04/18 08:33:16;;;;;;;5.95;1.90;;;;;;;12.22;100.00;101066.28;5429829;26;20011;-70
2024/04/18 08:35:43;;;;;;;7.25;1.83;;;;;;;12.34;98.24;101067.84;5427812;26;20008;-70
2024/04/18 08:38:09;;;;;;;5.93;1.48;;;;;;;12.35;99.56;101066.75;5370691;26;20090;-70
2024/04/18 08:40:35;;;;;;;7.35;1.63;;;;;;;12.32;95.83;101076.50;5458035;26;20006;-70
2024/04/18 08:43:00;;;;;;;10.80;1.90;;;;;;;12.52;98.59;101081.06;5427858;26;20047;-70
2024/04/18 08:45:26;;;;;;;5.18;1.52;;;;;;;12.61;97.83;101079.28;5427892;26;20393;-70
2024/04/18 08:47:54;;;;;;;4.43;1.70;;;;;;;12.70;96.09;101082.25;5427117;26;20013;-70
2024/04/18 08:50:20;;;;;;;5.18;1.65;;;;;;;12.67;92.16;101083.69;5409909;26;20012;-70
2024/04/18 08:52:46;;;;;;;4.60;1.35;;;;;;;12.71;92.46;101084.78;5429900;26;20014;-70
2024/04/18 08:55:11;;;;;;;5.97;1.65;;;;;;;12.80;91.26;101081.34;5417539;26;20010;-70
2024/04/18 08:57:47;;;;;;;8.15;1.67;;;;;;;12.87;90.86;101076.22;5431288;26;20002;-70
2024/04/18 09:00:13;;;;;;;4.95;1.80;;;;;;;12.86;87.33;101086.56;5377533;26;20014;-70
2024/04/18 09:02:39;;;;;;;5.30;1.50;;;;;;;12.96;87.96;101089.25;5431562;26;20407;-70
2024/04/18 09:05:04;;;;;;;4.15;1.60;;;;;;;12.86;85.41;101094.09;5449310;26;20007;-70
2024/04/18 09:07:30;;;;;;;5.30;1.52;;;;;;;12.83;84.47;101091.91;5435574;26;20002;-70
2024/04/18 09:10:06;;;;;;;8.10;1.52;;;;;;;12.90;84.55;101092.38;5431784;26;20013;-71
2024/04/18 09:12:32;;;;;;;5.15;1.55;;;;;;;13.04;85.62;101082.19;5394120;26;20456;-71
2024/04/18 09:14:57;;;;;;;3.80;1.30;;;;;;;13.04;82.27;101093.34;5451228;26;20006;-71
2024/04/18 09:17:22;;;;;;;3.60;1.15;;;;;;;13.00;79.35;101103.41;5401726;26;20002;-71
2024/04/18 09:19:48;;;;;;;3.13;1.27;;;;;;;12.97;76.06;101098.44;5401555;26;20835;-71
2024/04/18 09:22:14;;;;;;;4.35;1.02;;;;;;;13.10;78.12;101103.31;5486340;26;19995;-70
2024/04/18 09:24:44;;;;;;;3.85;1.33;;;;;;;13.14;76.60;101109.09;5428191;26;20082;-70
2024/04/18 09:27:13;;;;;;;5.78;1.08;;;;;;;13.08;75.36;101113.91;5454711;26;19999;-70
2024/04/18 09:29:39;;;;;;;6.85;1.25;;;;;;;13.10;75.76;101108.06;5490359;26;20331;-71
2024/04/18 09:32:05;;;;;;;5.72;1.20;;;;;;;13.08;74.88;101111.13;5424859;26;20013;-71
2024/04/18 09:34:31;;;;;;;3.90;1.23;;;;;;;13.04;75.98;101121.22;5456860;26;20016;-71
2024/04/18 09:36:58;;;;;;;5.38;1.10;;;;;;;13.19;76.37;101112.66;5422630;26;20009;-71
2024/04/18 09:39:26;;;;;;;2.90;1.02;;;;;;;13.37;77.18;101121.41;5473759;26;20050;-71
2024/04/18 09:41:56;;;;;;;5.80;1.25;;;;;;;13.44;73.75;101118.28;5471866;26;20006;-71
2024/04/18 09:44:23;;;;;;;2.65;1.13;;;;;;;13.48;72.97;101117.34;5433076;26;20086;-71
2024/04/18 09:46:50;;;;;;;1.48;1.00;;;;;;;13.49;74.52;101118.22;5450262;26;20014;-71
2024/04/18 09:49:16;;;;;;;7.80;1.35;;;;;;;13.66;74.12;101120.50;5480370;26;20020;-71
2024/04/18 09:51:42;;;;;;;5.38;1.00;;;;;;;13.75;74.61;101124.28;5460969;26;20018;-71
2024/04/18 09:54:08;;;;;;;5.20;1.38;;;;;;;13.81;73.12;101123.06;5460639;26;20457;-71
2024/04/18 09:56:33;;;;;;;2.78;0.93;;;;;;;13.95;73.01;101128.72;5460488;26;20006;-71
2024/04/18 09:59:00;;;;;;;3.90;1.15;;;;;;;14.02;71.15;101135.59;5460582;26;20013;-70
2024/04/18 10:01:25;;;;;;;2.95;1.10;;;;;;;14.07;70.79;101138.31;5430660;26;20002;-70
2024/04/18 10:03:50;;;;;;;3.55;1.00;;;;;;;14.02;69.41;101141.19;5459875;26;20014;-71
2024/04/18 10:06:16;;;;;;;6.38;1.42;;;;;;;14.20;69.87;101138.69;5447826;26;20019;-71
2024/04/18 10:08:50;;;;;;;6.65;0.95;;;;;;;14.19;69.20;101142.63;5391642;26;20005;-71
2024/04/18 10:11:17;;;;;;;3.88;1.00;;;;;;;14.07;68.04;101143.91;5474194;26;20010;-70
2024/04/18 10:13:43;;;;;;;5.85;1.13;;;;;;;14.22;69.80;101145.63;5479782;26;20002;-71
2024/04/18 10:16:09;;;;;;;3.50;0.73;;;;;;;14.06;67.06;101147.81;5479930;26;20699;-70
2024/04/18 10:18:35;;;;;;;3.95;0.73;;;;;;;14.18;67.96;101157.69;5476336;26;19998;-71
2024/04/18 10:21:26;;;;;;;3.75;0.90;;;;;;;14.34;68.63;101152.72;5460529;25;19994;-71
2024/04/18 10:24:01;;;;;;;5.10;1.00;;;;;;;14.41;69.27;101161.56;5464961;26;19998;-71
2024/04/18 10:26:31;;;;;;;2.92;1.10;;;;;;;14.51;68.15;101165.03;5431689;26;20006;-71
2024/04/18 10:28:56;;;;;;;2.38;0.82;;;;;;;14.59;66.94;101159.88;5464429;26;20021;-71
2024/04/18 10:31:22;;;;;;;2.72;1.02;;;;;;;14.60;64.80;101167.13;5428810;26;20018;-71
2024/04/18 10:33:49;;;;;;;6.55;1.10;;;;;;;14.69;65.52;101157.75;5460237;26;20375;-71
2024/04/18 10:36:15;;;;;;;2.20;0.90;;;;;;;14.65;65.02;101167.03;5459851;26;20015;-71
2024/04/18 10:38:47;;;;;;;3.20;1.10;;;;;;;14.69;66.26;101176.50;5422155;26;19995;-71
2024/04/18 10:41:17;;;;;;;3.30;0.90;;;;;;;14.79;65.89;101179.09;5476247;26;20372;-71
2024/04/18 10:43:43;;;;;;;6.35;1.00;;;;;;;14.90;65.66;101171.38;5470108;26;20056;-71
2024/04/18 10:46:12;;;;;;;3.88;1.00;;;;;;;15.07;65.41;101167.97;5411446;26;20011;-71
2024/04/18 10:48:38;;;;;;;3.03;1.25;;;;;;;15.10;65.05;101167.34;5431127;26;20009;-71
2024/04/18 10:51:04;;;;;;;2.55;0.95;;;;;;;15.17;64.09;101170.59;5475611;26;20038;-70
2024/04/18 10:53:34;;;;;;;5.80;1.25;;;;;;;15.27;62.71;101176.00;5451459;26;20440;-71
2024/04/18 10:55:59;;;;;;;2.10;0.90;;;;;;;15.47;61.28;101169.16;5447044;26;20002;-71
2024/04/18 10:58:25;;;;;;;4.28;1.00;;;;;;;15.61;61.53;101177.56;5422931;26;20003;-71
2024/04/18 11:00:59;;;;;;;2.00;0.85;;;;;;;15.63;61.77;101184.50;5448697;26;20017;-71
2024/04/18 11:03:27;;;;;;;6.15;1.10;;;;;;;15.91;63.04;101183.66;5477095;26;19995;-71
2024/04/18 11:05:56;;;;;;;3.10;0.88;;;;;;;16.12;63.92;101173.66;5455517;26;20021;-71
2024/04/18 11:08:22;;;;;;;2.70;1.00;;;;;;;16.29;64.22;101165.41;5440826;26;20006;-70
2024/04/18 11:10:47;;;;;;;2.58;0.98;;;;;;;16.54;62.75;101179.94;5443330;26;20003;-71
2024/04/18 11:13:15;;;;;;;3.85;0.90;;;;;;;16.70;61.10;101174.78;5488516;26;20042;-70
2024/04/18 11:15:40;;;;;;;3.45;1.00;;;;;;;16.62;59.13;101186.78;5458454;26;20013;-71
2024/04/18 11:18:06;;;;;;;2.40;0.60;;;;;;;16.81;59.55;101183.81;5429273;26;19998;-71
2024/04/18 11:20:32;;;;;;;2.63;0.82;;;;;;;16.81;59.76;101186.63;5422471;26;20003;-71
2024/04/18 11:22:58;;;;;;;3.45;1.02;;;;;;;16.91;59.54;101184.38;5429314;26;20037;-71